This is the latest recevied weather packets stored in our database for station/object F1AGU-13. If no packets are shown the sender has not sent any weather packets the latest 10 day(s).
| Time | Temp. | Humidity | Pressure | Rain* | Wind** | Luminosity | Snow |
|---|---|---|---|---|---|---|---|
| 1778012717 | 7.78° C | 95% | 1011.8 hPa | 5.08 mm | - | - | - |
| 1778012117 | 7.78° C | 95% | 1012 hPa | 3.81 mm | - | - | - |
| 1778011517 | 7.78° C | 94% | 1011.5 hPa | 2.79 mm | - | - | - |
| 1778010917 | 7.78° C | 94% | 1011.2 hPa | 1.78 mm | - | - | - |
| 1778010317 | 7.78° C | 94% | 1011.3 hPa | 0.76 mm | - | - | - |
| 1778009717 | 7.78° C | 94% | 1010.8 hPa | 1.52 mm | - | - | - |
| 1778009117 | 7.78° C | 93% | 1010.7 hPa | 4.57 mm | - | - | - |
| 1778008517 | 7.78° C | 93% | 1010.5 hPa | 5.84 mm | - | - | - |
| 1778007917 | 7.78° C | 92% | 1010.2 hPa | 6.86 mm | - | - | - |
| 1778007317 | 7.78° C | 90% | 1010.2 hPa | 7.37 mm | - | - | - |
| 1778006717 | 8.33° C | 89% | 1010.6 hPa | 7.37 mm | - | - | - |
| 1778006117 | 8.89° C | 86% | 1011 hPa | 6.1 mm | - | - | - |
| 1778005517 | 10.56° C | 85% | 1011 hPa | 2.79 mm | - | - | - |
| 1778004917 | 10.56° C | 85% | 1010.6 hPa | 1.52 mm | - | - | - |
| 1778004317 | 11.11° C | 81% | 1010.3 hPa | 0.51 mm | - | - | - |
| 1778003717 | 11.67° C | 81% | 1010.3 hPa | 0 mm | - | - | - |
| 1778003117 | 11.67° C | 87% | 1010.1 hPa | 0 mm | - | - | - |
| 1778002517 | 12.22° C | 85% | 1009.9 hPa | 0 mm | - | - | - |
| 1778001917 | 12.78° C | 85% | 1010.2 hPa | 0 mm | - | - | - |
| 1778001317 | 12.78° C | 81% | 1010.1 hPa | 0 mm | - | - | - |
| 1778000717 | 12.78° C | 78% | 1010.2 hPa | 0 mm | - | - | - |
| 1778000116 | 13.33° C | 75% | 1010.2 hPa | 0 mm | - | - | - |
| 1777999517 | 13.33° C | 73% | 1010.2 hPa | 0 mm | - | - | - |
| 1777998917 | 13.89° C | 73% | 1010.3 hPa | 0 mm | - | - | - |
| 1777998317 | 13.33° C | 76% | 1010.4 hPa | 0 mm | - | - | - |
* Rain latest hour (hover to see other rain measurements)
** Current wind speed in m/s (hover to see current wind gust speed)